KDANKSAN

Guest
Details From KDAN - Danville Rgnl
To KSAN - San Diego Intl
Flight Number -
Tags decoded
Created
Modified
Stats Distance 1,872 nm / 3,467 km
Max Altitude 0 ft / 0 m
Waypoints 2
Social Downloads 3
Likes 0
Share VATSIM

Download

Looking for another format? Having issues loading an existing format? Contact us
Advertisement - Login to hide

Notes

Requested: KDAN KSAN

Route

KDAN KSAN

ID Type Via Altitude Latitude Longitude Leg Dist Tot Dist Heading (true) Name
O KDAN APT - 0 ft / 0 m 36.57328˚ -79.33540˚ - 0 nm - Danville Rgnl
O KSAN APT - 0 ft / 0 m 32.73356˚ -117.18966˚ 1872 nm 1872 nm 274° / 252° San Diego Intl

Altitude Profile

Advertisement - Login to hide

Weather


0- 5 10 15 20 25 30 35+ Temperature / ° C

Clouds and Precipitation
Forecast for 2017-12-11 18:00 UTC. Updated 18 minutes ago

Ground ~20,000 ft ~40,000 ft Winds

KDAN

Details ICAO KDAN
Name Danville Rgnl
Region United States
Timezone America/New_York (UTC-5.0)
Stats Elevation 571 ft / 174 m (AMSL)
Location 36.573282° -79.335402°
Runways 2
Magnetic Variation 8.966° W

METAR

KDAN 111453Z AUTO 22003KT 10SM CLR 02/M02 A3013 RMK AO2 SLP203 T00171022 50006

Decode

TAF

TAF KDAN 111120Z 1112/1212 VRB03KT P6SM SKC

Decode

Departure Runways

ID Width Length Bearing (true) Bearing (mag) Surface Threshold Offset Overrun Length
02 151 ft / 46 m 6,513 ft / 1,985 m 16.25° 25.22° Asphalt 177 ft / 54 m 0 ft / 0 m
13 98 ft / 30 m 4,022 ft / 1,226 m 124.69° 133.66° Asphalt 0 ft / 0 m 889 ft / 271 m
20 151 ft / 46 m 6,513 ft / 1,985 m 196.25° 205.22° Asphalt 177 ft / 54 m 0 ft / 0 m
31 98 ft / 30 m 4,022 ft / 1,226 m 304.70° 313.67° Asphalt 0 ft / 0 m 85 ft / 26 m

KSAN

Details ICAO KSAN (SAN)
Name San Diego Intl
Region United States
Timezone America/Los_Angeles (UTC-8.0)
Stats Elevation 17 ft / 5 m (AMSL)
Location 32.733556° -117.189658°
Runways 1
Magnetic Variation 11.526° E

METAR

KSAN 111451Z 34003KT 10SM FEW160 SCT200 BKN250 13/M04 A3018 RMK AO2 SLP220 T01281044 53012

Decode

TAF

TAF AMD KSAN 111452Z 1115/1218 VRB03KT P6SM BKN250 FM112000 31008KT P6SM SCT250 FM120100 VRB03KT P6SM FEW250

Decode

Destination Runways

ID Width Length Bearing (true) Bearing (mag) Surface Threshold Offset Overrun Length
09 200 ft / 61 m 9,387 ft / 2,861 m 106.07° 94.54° Asphalt 699 ft / 213 m 269 ft / 82 m
27 200 ft / 61 m 9,387 ft / 2,861 m 286.08° 274.55° Asphalt 1,811 ft / 552 m 0 ft / 0 m

Approach Navaids

Runway Type Ident Frequency Range Bearing (true) Bearing (mag) Slope Elevation
09 Localiser ISAN 111.55 MHz 18 nm / 33 km 106.08° 94.55° - 17 ft / 5 m (AMSL)
09 Glidescope ISAN 111.55 MHz 10 nm / 19 km 106.08° 94.55° 3.22° 13 ft / 4 m (AMSL)
09 DME ISAN 111.55 MHz 18 nm / 33 km - - - 29 ft / 9 m (AMSL)
27 Localiser IUBR 110.90 MHz 18 nm / 33 km 286.07° 274.54° - 13 ft / 4 m (AMSL)
27 DME IUBR 110.90 MHz 18 nm / 33 km - - - 26 ft / 8 m (AMSL)